sensor_id;sensor_type;location;lat;lon;timestamp;pressure;altitude;pressure_sealevel;temperature;humidity
51496;BME280;37572;52.094;4.870;2023-05-19T00:00:31;102828.00;;;13.50;52.81
51496;BME280;37572;52.094;4.870;2023-05-19T00:02:57;102824.63;;;13.48;52.88
51496;BME280;37572;52.094;4.870;2023-05-19T00:05:24;102824.84;;;13.45;53.00
51496;BME280;37572;52.094;4.870;2023-05-19T00:07:57;102821.72;;;13.40;52.91
51496;BME280;37572;52.094;4.870;2023-05-19T00:10:23;102818.44;;;13.36;53.22
51496;BME280;37572;52.094;4.870;2023-05-19T00:12:49;102816.00;;;13.33;53.18
51496;BME280;37572;52.094;4.870;2023-05-19T00:15:15;102816.09;;;13.31;53.21
51496;BME280;37572;52.094;4.870;2023-05-19T00:17:40;102808.09;;;13.31;53.17
51496;BME280;37572;52.094;4.870;2023-05-19T00:20:07;102816.09;;;13.31;53.28
51496;BME280;37572;52.094;4.870;2023-05-19T00:22:32;102817.06;;;13.30;53.47
51496;BME280;37572;52.094;4.870;2023-05-19T00:24:58;102815.50;;;13.28;53.58
51496;BME280;37572;52.094;4.870;2023-05-19T00:27:23;102815.63;;;13.26;53.46
51496;BME280;37572;52.094;4.870;2023-05-19T00:29:48;102815.75;;;13.25;53.41
51496;BME280;37572;52.094;4.870;2023-05-19T00:32:14;102803.34;;;13.24;53.54
51496;BME280;37572;52.094;4.870;2023-05-19T00:34:40;102810.78;;;13.20;53.50
51496;BME280;37572;52.094;4.870;2023-05-19T00:37:05;102814.69;;;13.16;53.25
51496;BME280;37572;52.094;4.870;2023-05-19T00:39:30;102810.66;;;13.10;53.27
51496;BME280;37572;52.094;4.870;2023-05-19T00:41:56;102809.22;;;13.06;53.46
51496;BME280;37572;52.094;4.870;2023-05-19T00:44:21;102819.09;;;13.06;53.57
51496;BME280;37572;52.094;4.870;2023-05-19T00:46:47;102809.47;;;13.03;53.31
51496;BME280;37572;52.094;4.870;2023-05-19T00:49:12;102819.56;;;13.00;53.49
51496;BME280;37572;52.094;4.870;2023-05-19T00:51:37;102815.31;;;12.97;53.45
51496;BME280;37572;52.094;4.870;2023-05-19T00:54:04;102810.09;;;12.95;53.54
51496;BME280;37572;52.094;4.870;2023-05-19T00:56:30;102804.88;;;12.94;53.79
51496;BME280;37572;52.094;4.870;2023-05-19T00:58:56;102805.84;;;12.93;53.60
51496;BME280;37572;52.094;4.870;2023-05-19T01:01:21;102806.94;;;12.90;53.60
51496;BME280;37572;52.094;4.870;2023-05-19T01:03:47;102807.06;;;12.89;53.92
51496;BME280;37572;52.094;4.870;2023-05-19T01:06:12;102812.66;;;12.86;53.79
51496;BME280;37572;52.094;4.870;2023-05-19T01:08:39;102808.41;;;12.83;53.89
51496;BME280;37572;52.094;4.870;2023-05-19T01:11:05;102806.84;;;12.81;53.72
51496;BME280;37572;52.094;4.870;2023-05-19T01:13:31;102800.03;;;12.76;54.17
51496;BME280;37572;52.094;4.870;2023-05-19T01:16:06;102798.56;;;12.72;54.18
51496;BME280;37572;52.094;4.870;2023-05-19T01:18:42;102804.88;;;12.71;54.31
51496;BME280;37572;52.094;4.870;2023-05-19T01:23:51;102797.94;;;12.69;54.38
51496;BME280;37572;52.094;4.870;2023-05-19T01:29:44;102794.31;;;12.70;54.49
51496;BME280;37572;52.094;4.870;2023-05-19T01:32:19;102796.88;;;12.71;54.49
51496;BME280;37572;52.094;4.870;2023-05-19T01:34:47;102789.69;;;12.72;54.63
51496;BME280;37572;52.094;4.870;2023-05-19T01:37:15;102779.00;;;12.72;54.85
51496;BME280;37572;52.094;4.870;2023-05-19T01:39:41;102777.06;;;12.74;54.90
51496;BME280;37572;52.094;4.870;2023-05-19T01:42:08;102782.16;;;12.77;54.72
51496;BME280;37572;52.094;4.870;2023-05-19T01:44:35;102780.34;;;12.77;55.07
51496;BME280;37572;52.094;4.870;2023-05-19T01:47:01;102782.16;;;12.77;54.76
51496;BME280;37572;52.094;4.870;2023-05-19T01:49:26;102773.16;;;12.78;54.89
51496;BME280;37572;52.094;4.870;2023-05-19T01:51:52;102774.00;;;12.78;54.95
51496;BME280;37572;52.094;4.870;2023-05-19T01:54:18;102780.47;;;12.76;54.94
51496;BME280;37572;52.094;4.870;2023-05-19T01:59:56;102776.31;;;12.72;54.93
51496;BME280;37572;52.094;4.870;2023-05-19T02:05:32;102778.41;;;12.68;54.77
51496;BME280;37572;52.094;4.870;2023-05-19T02:08:13;102778.50;;;12.67;54.59
51496;BME280;37572;52.094;4.870;2023-05-19T02:10:44;102784.09;;;12.64;54.57
51496;BME280;37572;52.094;4.870;2023-05-19T02:13:15;102783.25;;;12.63;54.58
51496;BME280;37572;52.094;4.870;2023-05-19T02:15:44;102779.75;;;12.63;54.57
51496;BME280;37572;52.094;4.870;2023-05-19T02:18:10;102776.31;;;12.61;54.37
51496;BME280;37572;52.094;4.870;2023-05-19T02:20:39;102773.91;;;12.57;54.40
51496;BME280;37572;52.094;4.870;2023-05-19T02:23:04;102770.75;;;12.52;54.38
51496;BME280;37572;52.094;4.870;2023-05-19T02:25:30;102774.63;;;12.48;54.62
51496;BME280;37572;52.094;4.870;2023-05-19T02:27:56;102773.19;;;12.44;54.56
51496;BME280;37572;52.094;4.870;2023-05-19T02:30:22;102761.16;;;12.38;54.25
51496;BME280;37572;52.094;4.870;2023-05-19T02:32:47;102764.16;;;12.34;54.84
51496;BME280;37572;52.094;4.870;2023-05-19T02:35:12;102762.50;;;12.33;54.90
51496;BME280;37572;52.094;4.870;2023-05-19T02:37:38;102757.38;;;12.30;55.21
51496;BME280;37572;52.094;4.870;2023-05-19T02:40:04;102756.66;;;12.28;55.15
51496;BME280;37572;52.094;4.870;2023-05-19T02:42:29;102760.53;;;12.24;55.66
51496;BME280;37572;52.094;4.870;2023-05-19T02:44:55;102753.63;;;12.21;55.78
51496;BME280;37572;52.094;4.870;2023-05-19T02:47:20;102754.47;;;12.21;55.78
51496;BME280;37572;52.094;4.870;2023-05-19T02:49:45;102758.09;;;12.20;55.82
51496;BME280;37572;52.094;4.870;2023-05-19T02:52:11;102751.06;;;12.19;55.52
51496;BME280;37572;52.094;4.870;2023-05-19T02:54:36;102751.28;;;12.16;55.52
51496;BME280;37572;52.094;4.870;2023-05-19T02:57:01;102752.50;;;12.12;55.63
51496;BME280;37572;52.094;4.870;2023-05-19T02:59:27;102748.38;;;12.08;55.53
51496;BME280;37572;52.094;4.870;2023-05-19T03:01:58;102749.31;;;12.07;55.68
51496;BME280;37572;52.094;4.870;2023-05-19T03:04:24;102744.84;;;12.08;55.85
51496;BME280;37572;52.094;4.870;2023-05-19T03:06:49;102747.41;;;12.09;55.92
51496;BME280;37572;52.094;4.870;2023-05-19T03:09:14;102751.75;;;12.10;55.79
51496;BME280;37572;52.094;4.870;2023-05-19T03:11:40;102743.97;;;12.07;55.79
51496;BME280;37572;52.094;4.870;2023-05-19T03:14:05;102746.06;;;12.03;55.99
51496;BME280;37572;52.094;4.870;2023-05-19T03:16:30;102738.03;;;12.03;55.68
51496;BME280;37572;52.094;4.870;2023-05-19T03:18:56;102737.19;;;12.03;55.71
51496;BME280;37572;52.094;4.870;2023-05-19T03:21:22;102740.72;;;12.03;55.72
51496;BME280;37572;52.094;4.870;2023-05-19T03:23:47;102738.03;;;12.03;55.72
51496;BME280;37572;52.094;4.870;2023-05-19T03:26:13;102742.53;;;12.03;55.72
51496;BME280;37572;52.094;4.870;2023-05-19T03:28:38;102734.66;;;12.01;55.65
51496;BME280;37572;52.094;4.870;2023-05-19T03:31:03;102729.41;;;12.00;55.83
51496;BME280;37572;52.094;4.870;2023-05-19T03:33:29;102733.03;;;11.99;55.78
51496;BME280;37572;52.094;4.870;2023-05-19T03:35:57;102731.38;;;11.98;55.83
51496;BME280;37572;52.094;4.870;2023-05-19T03:38:23;102730.53;;;11.97;55.82
51496;BME280;37572;52.094;4.870;2023-05-19T03:40:48;102727.22;;;11.94;55.92
51496;BME280;37572;52.094;4.870;2023-05-19T03:43:14;102727.22;;;11.94;55.88
51496;BME280;37572;52.094;4.870;2023-05-19T03:45:40;102729.03;;;11.93;56.01
51496;BME280;37572;52.094;4.870;2023-05-19T03:48:06;102724.53;;;11.94;55.90
51496;BME280;37572;52.094;4.870;2023-05-19T03:50:31;102727.09;;;11.95;55.92
51496;BME280;37572;52.094;4.870;2023-05-19T03:52:58;102725.31;;;11.96;55.94
51496;BME280;37572;52.094;4.870;2023-05-19T03:55:23;102724.53;;;11.94;56.07
51496;BME280;37572;52.094;4.870;2023-05-19T03:57:50;102724.66;;;11.92;56.00
51496;BME280;37572;52.094;4.870;2023-05-19T04:00:17;102720.31;;;11.91;56.18
51496;BME280;37572;52.094;4.870;2023-05-19T04:02:42;102727.44;;;11.91;56.19
51496;BME280;37572;52.094;4.870;2023-05-19T04:05:08;102722.97;;;11.91;56.29
51496;BME280;37572;52.094;4.870;2023-05-19T04:07:33;102728.19;;;11.93;56.20
51496;BME280;37572;52.094;4.870;2023-05-19T04:09:58;102727.97;;;11.96;56.23
51496;BME280;37572;52.094;4.870;2023-05-19T04:12:24;102728.69;;;11.98;56.48
51496;BME280;37572;52.094;4.870;2023-05-19T04:14:49;102741.81;;;12.01;56.63
51496;BME280;37572;52.094;4.870;2023-05-19T04:17:14;102737.31;;;12.01;56.62
51496;BME280;37572;52.094;4.870;2023-05-19T04:19:40;102743.50;;;12.02;56.39
51496;BME280;37572;52.094;4.870;2023-05-19T04:22:05;102736.34;;;12.02;56.30
51496;BME280;37572;52.094;4.870;2023-05-19T04:24:30;102742.31;;;12.06;56.53
51496;BME280;37572;52.094;4.870;2023-05-19T04:26:56;102748.97;;;12.12;56.49
51496;BME280;37572;52.094;4.870;2023-05-19T04:29:26;102750.19;;;12.19;56.11
51496;BME280;37572;52.094;4.870;2023-05-19T04:31:53;102746.94;;;12.27;56.56
51496;BME280;37572;52.094;4.870;2023-05-19T04:34:19;102747.53;;;12.30;56.33
51496;BME280;37572;52.094;4.870;2023-05-19T04:36:44;102749.00;;;12.34;56.58
51496;BME280;37572;52.094;4.870;2023-05-19T04:39:09;102754.72;;;12.41;56.53
51496;BME280;37572;52.094;4.870;2023-05-19T04:41:36;102743.41;;;12.49;56.86
51496;BME280;37572;52.094;4.870;2023-05-19T04:44:05;102741.84;;;12.57;56.75
51496;BME280;37572;52.094;4.870;2023-05-19T04:46:31;102743.78;;;12.67;56.91
51496;BME280;37572;52.094;4.870;2023-05-19T04:48:56;102742.91;;;12.77;56.70
51496;BME280;37572;52.094;4.870;2023-05-19T04:51:22;102744.13;;;12.85;56.54
51496;BME280;37572;52.094;4.870;2023-05-19T04:53:55;102742.63;;;12.92;56.63
51496;BME280;37572;52.094;4.870;2023-05-19T04:56:20;102754.44;;;13.01;56.38
51496;BME280;37572;52.094;4.870;2023-05-19T04:58:46;102754.38;;;13.12;56.59
51496;BME280;37572;52.094;4.870;2023-05-19T05:01:11;102759.56;;;13.25;56.75
51496;BME280;37572;52.094;4.870;2023-05-19T05:03:38;102759.31;;;13.39;56.44
51496;BME280;37572;52.094;4.870;2023-05-19T05:06:03;102756.47;;;13.52;56.52
51496;BME280;37572;52.094;4.870;2023-05-19T05:08:29;102756.53;;;13.62;56.54
51496;BME280;37572;52.094;4.870;2023-05-19T05:10:54;102762.69;;;13.74;56.48
51496;BME280;37572;52.094;4.870;2023-05-19T05:13:21;102766.88;;;13.87;56.38
51496;BME280;37572;52.094;4.870;2023-05-19T05:15:47;102765.00;;;13.99;56.23
51496;BME280;37572;52.094;4.870;2023-05-19T05:18:13;102760.41;;;14.11;56.09
51496;BME280;37572;52.094;4.870;2023-05-19T05:20:43;102771.06;;;14.22;56.06
51496;BME280;37572;52.094;4.870;2023-05-19T05:23:09;102771.09;;;14.32;56.04
51496;BME280;37572;52.094;4.870;2023-05-19T05:25:41;102773.53;;;14.45;55.84
51496;BME280;37572;52.094;4.870;2023-05-19T05:28:07;102770.34;;;14.51;55.86
51496;BME280;37572;52.094;4.870;2023-05-19T05:30:33;102766.13;;;14.58;55.61
51496;BME280;37572;52.094;4.870;2023-05-19T05:32:59;102769.41;;;14.62;55.30
51496;BME280;37572;52.094;4.870;2023-05-19T05:35:25;102769.72;;;14.69;55.20
51496;BME280;37572;52.094;4.870;2023-05-19T05:37:50;102780.75;;;14.75;55.08
51496;BME280;37572;52.094;4.870;2023-05-19T05:40:15;102776.56;;;14.83;55.07
51496;BME280;37572;52.094;4.870;2023-05-19T05:42:42;102771.34;;;14.91;54.72
51496;BME280;37572;52.094;4.870;2023-05-19T05:45:07;102767.00;;;14.99;54.68
51496;BME280;37572;52.094;4.870;2023-05-19T05:47:33;102770.66;;;15.08;54.69
51496;BME280;37572;52.094;4.870;2023-05-19T05:49:58;102781.84;;;15.23;54.74
51496;BME280;37572;52.094;4.870;2023-05-19T05:52:29;102775.94;;;15.39;54.62
51496;BME280;37572;52.094;4.870;2023-05-19T05:54:55;102772.41;;;15.58;54.42
51496;BME280;37572;52.094;4.870;2023-05-19T05:57:20;102775.38;;;15.75;54.01
51496;BME280;37572;52.094;4.870;2023-05-19T05:59:46;102772.56;;;15.86;53.53
51496;BME280;37572;52.094;4.870;2023-05-19T06:02:11;102767.88;;;15.98;53.37
51496;BME280;37572;52.094;4.870;2023-05-19T06:04:37;102776.75;;;16.08;52.89
51496;BME280;37572;52.094;4.870;2023-05-19T06:07:02;102766.81;;;16.18;52.65
51496;BME280;37572;52.094;4.870;2023-05-19T06:09:27;102769.34;;;16.30;52.46
51496;BME280;37572;52.094;4.870;2023-05-19T06:11:54;102767.31;;;16.41;52.14
51496;BME280;37572;52.094;4.870;2023-05-19T06:14:19;102770.81;;;16.52;51.84
51496;BME280;37572;52.094;4.870;2023-05-19T06:16:45;102765.25;;;16.63;51.78
51496;BME280;37572;52.094;4.870;2023-05-19T06:19:12;102770.13;;;16.77;51.75
51496;BME280;37572;52.094;4.870;2023-05-19T06:21:37;102754.97;;;16.86;51.36
51496;BME280;37572;52.094;4.870;2023-05-19T06:24:03;102761.34;;;16.85;51.12
51496;BME280;37572;52.094;4.870;2023-05-19T06:26:28;102757.38;;;16.79;50.90
51496;BME280;37572;52.094;4.870;2023-05-19T06:28:53;102760.50;;;16.85;50.92
51496;BME280;37572;52.094;4.870;2023-05-19T06:31:19;102757.16;;;17.00;50.95
51496;BME280;37572;52.094;4.870;2023-05-19T06:33:44;102764.91;;;17.22;50.45
51496;BME280;37572;52.094;4.870;2023-05-19T06:36:09;102768.69;;;17.47;50.40
51496;BME280;37572;52.094;4.870;2023-05-19T06:38:36;102764.41;;;17.80;50.21
51496;BME280;37572;52.094;4.870;2023-05-19T06:41:01;102765.56;;;18.14;49.41
51496;BME280;37572;52.094;4.870;2023-05-19T06:43:26;102763.53;;;18.42;48.44
51496;BME280;37572;52.094;4.870;2023-05-19T06:45:52;102768.84;;;18.68;47.46
51496;BME280;37572;52.094;4.870;2023-05-19T06:48:18;102761.53;;;18.95;47.29
51496;BME280;37572;52.094;4.870;2023-05-19T06:50:43;102762.59;;;19.18;46.24
51496;BME280;37572;52.094;4.870;2023-05-19T06:53:09;102762.63;;;19.43;45.68
51496;BME280;37572;52.094;4.870;2023-05-19T06:55:34;102759.59;;;19.71;45.26
51496;BME280;37572;52.094;4.870;2023-05-19T06:57:59;102766.53;;;19.90;44.41
51496;BME280;37572;52.094;4.870;2023-05-19T07:00:25;102765.16;;;20.10;44.16
51496;BME280;37572;52.094;4.870;2023-05-19T07:02:50;102770.84;;;20.32;43.93
51496;BME280;37572;52.094;4.870;2023-05-19T07:05:15;102766.75;;;20.44;43.53
51496;BME280;37572;52.094;4.870;2023-05-19T07:07:41;102761.78;;;20.56;43.35
51496;BME280;37572;52.094;4.870;2023-05-19T07:10:07;102771.09;;;20.70;42.96
51496;BME280;37572;52.094;4.870;2023-05-19T07:12:33;102769.16;;;20.79;42.80
51496;BME280;37572;52.094;4.870;2023-05-19T07:14:58;102763.88;;;20.85;42.29
51496;BME280;37572;52.094;4.870;2023-05-19T07:17:23;102761.34;;;20.84;41.86
51496;BME280;37572;52.094;4.870;2023-05-19T07:19:49;102760.00;;;20.80;41.70
51496;BME280;37572;52.094;4.870;2023-05-19T07:22:14;102770.53;;;20.75;41.65
51496;BME280;37572;52.094;4.870;2023-05-19T07:24:40;102768.50;;;20.77;41.77
51496;BME280;37572;52.094;4.870;2023-05-19T07:27:05;102762.38;;;20.83;41.19
51496;BME280;37572;52.094;4.870;2023-05-19T07:29:30;102766.13;;;20.82;41.13
51496;BME280;37572;52.094;4.870;2023-05-19T07:31:56;102763.72;;;20.87;41.36
51496;BME280;37572;52.094;4.870;2023-05-19T07:34:23;102756.63;;;21.09;41.42
51496;BME280;37572;52.094;4.870;2023-05-19T07:36:48;102761.22;;;21.32;41.50
51496;BME280;37572;52.094;4.870;2023-05-19T07:39:15;102757.31;;;21.34;41.27
51496;BME280;37572;52.094;4.870;2023-05-19T07:41:40;102762.25;;;21.31;41.11
51496;BME280;37572;52.094;4.870;2023-05-19T07:44:06;102760.25;;;21.24;40.70
51496;BME280;37572;52.094;4.870;2023-05-19T07:46:33;102763.69;;;21.18;40.92
51496;BME280;37572;52.094;4.870;2023-05-19T07:48:58;102760.91;;;21.03;40.15
51496;BME280;37572;52.094;4.870;2023-05-19T07:51:24;102757.94;;;20.90;40.64
51496;BME280;37572;52.094;4.870;2023-05-19T07:53:49;102756.94;;;20.83;40.83
51496;BME280;37572;52.094;4.870;2023-05-19T07:56:15;102765.56;;;20.86;40.70
51496;BME280;37572;52.094;4.870;2023-05-19T07:58:40;102753.19;;;20.92;40.53
51496;BME280;37572;52.094;4.870;2023-05-19T08:01:06;102754.81;;;21.01;40.81
51496;BME280;37572;52.094;4.870;2023-05-19T08:03:31;102753.09;;;21.09;40.40
51496;BME280;37572;52.094;4.870;2023-05-19T08:05:57;102745.63;;;21.11;39.62
51496;BME280;37572;52.094;4.870;2023-05-19T08:08:22;102743.56;;;21.13;40.10
51496;BME280;37572;52.094;4.870;2023-05-19T08:10:47;102738.44;;;21.18;40.92
51496;BME280;37572;52.094;4.870;2023-05-19T08:13:13;102736.34;;;21.28;40.74
51496;BME280;37572;52.094;4.870;2023-05-19T08:15:38;102733.38;;;21.38;40.48
51496;BME280;37572;52.094;4.870;2023-05-19T08:18:03;102740.63;;;21.46;40.36
51496;BME280;37572;52.094;4.870;2023-05-19T08:20:29;102736.34;;;21.51;40.12
51496;BME280;37572;52.094;4.870;2023-05-19T08:22:55;102731.03;;;21.58;40.12
51496;BME280;37572;52.094;4.870;2023-05-19T08:25:20;102727.63;;;21.64;39.99
51496;BME280;37572;52.094;4.870;2023-05-19T08:27:45;102726.19;;;21.68;40.13
51496;BME280;37572;52.094;4.870;2023-05-19T08:30:11;102727.34;;;21.74;39.58
51496;BME280;37572;52.094;4.870;2023-05-19T08:32:36;102728.84;;;21.76;39.62
51496;BME280;37572;52.094;4.870;2023-05-19T08:35:02;102725.09;;;21.77;39.56
51496;BME280;37572;52.094;4.870;2023-05-19T08:37:28;102718.69;;;21.78;38.89
51496;BME280;37572;52.094;4.870;2023-05-19T08:39:53;102715.28;;;21.76;38.88
51496;BME280;37572;52.094;4.870;2023-05-19T08:42:18;102712.47;;;21.70;38.05
51496;BME280;37572;52.094;4.870;2023-05-19T08:44:44;102707.63;;;21.65;38.73
51496;BME280;37572;52.094;4.870;2023-05-19T08:47:11;102714.72;;;21.66;39.10
51496;BME280;37572;52.094;4.870;2023-05-19T08:49:43;102705.38;;;21.69;38.34
51496;BME280;37572;52.094;4.870;2023-05-19T08:52:24;102706.88;;;21.71;38.77
51496;BME280;37572;52.094;4.870;2023-05-19T08:55:08;102699.59;;;21.72;38.47
51496;BME280;37572;52.094;4.870;2023-05-19T08:57:35;102698.19;;;21.76;38.19
51496;BME280;37572;52.094;4.870;2023-05-19T09:00:02;102699.41;;;21.73;37.65
51496;BME280;37572;52.094;4.870;2023-05-19T09:02:29;102695.56;;;21.68;37.24
51496;BME280;37572;52.094;4.870;2023-05-19T09:04:55;102694.25;;;21.64;37.76
51496;BME280;37572;52.094;4.870;2023-05-19T09:07:21;102694.44;;;21.62;36.51
51496;BME280;37572;52.094;4.870;2023-05-19T09:09:49;102705.63;;;21.59;36.49
51496;BME280;37572;52.094;4.870;2023-05-19T09:12:15;102700.22;;;21.59;36.96
51496;BME280;37572;52.094;4.870;2023-05-19T09:14:40;102701.91;;;21.60;36.56
51496;BME280;37572;52.094;4.870;2023-05-19T09:17:06;102697.44;;;21.67;36.59
51496;BME280;37572;52.094;4.870;2023-05-19T09:19:31;102701.72;;;21.76;36.25
51496;BME280;37572;52.094;4.870;2023-05-19T09:21:57;102710.13;;;21.81;35.46
51496;BME280;37572;52.094;4.870;2023-05-19T09:24:25;102705.13;;;21.78;34.50
51496;BME280;37572;52.094;4.870;2023-05-19T09:26:54;102696.50;;;21.75;34.17
51496;BME280;37572;52.094;4.870;2023-05-19T09:29:20;102694.34;;;21.70;34.24
51496;BME280;37572;52.094;4.870;2023-05-19T09:31:50;102699.09;;;21.68;34.41
51496;BME280;37572;52.094;4.870;2023-05-19T09:34:16;102689.94;;;21.69;34.30
51496;BME280;37572;52.094;4.870;2023-05-19T09:36:42;102689.59;;;21.72;34.43
51496;BME280;37572;52.094;4.870;2023-05-19T09:39:17;102695.28;;;21.77;34.68
51496;BME280;37572;52.094;4.870;2023-05-19T09:41:44;102688.44;;;21.81;34.17
51496;BME280;37572;52.094;4.870;2023-05-19T09:44:22;102688.09;;;21.85;34.55
51496;BME280;37572;52.094;4.870;2023-05-19T09:46:51;102687.72;;;21.88;34.83
51496;BME280;37572;52.094;4.870;2023-05-19T09:49:27;102692.03;;;21.97;35.10
51496;BME280;37572;52.094;4.870;2023-05-19T09:51:58;102685.09;;;22.09;35.17
51496;BME280;37572;52.094;4.870;2023-05-19T09:54:24;102696.97;;;22.23;35.50
51496;BME280;37572;52.094;4.870;2023-05-19T09:57:01;102680.22;;;22.34;35.39
51496;BME280;37572;52.094;4.870;2023-05-19T09:59:28;102687.63;;;22.41;34.96
51496;BME280;37572;52.094;4.870;2023-05-19T10:01:56;102688.09;;;22.44;34.53
51496;BME280;37572;52.094;4.870;2023-05-19T10:04:25;102683.09;;;22.48;34.67
51496;BME280;37572;52.094;4.870;2023-05-19T10:06:52;102694.72;;;22.57;35.05
51496;BME280;37572;52.094;4.870;2023-05-19T10:09:22;102683.66;;;22.58;34.92
51496;BME280;37572;52.094;4.870;2023-05-19T10:11:51;102683.56;;;22.51;34.41
51496;BME280;37572;52.094;4.870;2023-05-19T10:14:21;102677.59;;;22.41;34.96
51496;BME280;37572;52.094;4.870;2023-05-19T10:16:49;102677.16;;;22.38;35.10
51496;BME280;37572;52.094;4.870;2023-05-19T10:19:15;102684.72;;;22.42;35.39
51496;BME280;37572;52.094;4.870;2023-05-19T10:21:41;102679.38;;;22.49;35.21
51496;BME280;37572;52.094;4.870;2023-05-19T10:24:06;102677.00;;;22.61;35.44
51496;BME280;37572;52.094;4.870;2023-05-19T10:26:33;102671.34;;;22.77;35.09
51496;BME280;37572;52.094;4.870;2023-05-19T10:28:59;102671.72;;;22.96;35.14
51496;BME280;37572;52.094;4.870;2023-05-19T10:31:25;102671.88;;;23.09;35.25
51496;BME280;37572;52.094;4.870;2023-05-19T10:39:33;102658.66;;;23.06;33.05
51496;BME280;37572;52.094;4.870;2023-05-19T10:42:14;102659.44;;;23.00;32.78
51496;BME280;37572;52.094;4.870;2023-05-19T10:47:23;102650.91;;;22.81;33.52
51496;BME280;37572;52.094;4.870;2023-05-19T10:49:51;102668.06;;;22.82;33.54
51496;BME280;37572;52.094;4.870;2023-05-19T10:52:20;102657.38;;;22.80;31.93
51496;BME280;37572;52.094;4.870;2023-05-19T10:54:46;102658.59;;;22.78;32.55
51496;BME280;37572;52.094;4.870;2023-05-19T10:57:15;102660.09;;;22.80;33.73
51496;BME280;37572;52.094;4.870;2023-05-19T10:59:41;102650.13;;;22.87;33.81
51496;BME280;37572;52.094;4.870;2023-05-19T11:02:08;102654.41;;;22.97;33.02
51496;BME280;37572;52.094;4.870;2023-05-19T11:04:47;102646.72;;;23.00;32.82
51496;BME280;37572;52.094;4.870;2023-05-19T11:07:19;102660.09;;;23.02;33.34
51496;BME280;37572;52.094;4.870;2023-05-19T11:09:50;102652.88;;;23.09;34.09
51496;BME280;37572;52.094;4.870;2023-05-19T11:12:22;102644.59;;;23.17;33.40
51496;BME280;37572;52.094;4.870;2023-05-19T11:14:51;102641.09;;;23.23;32.71
51496;BME280;37572;52.094;4.870;2023-05-19T11:17:17;102644.69;;;23.31;32.99
51496;BME280;37572;52.094;4.870;2023-05-19T11:19:56;102647.25;;;23.39;32.98
51496;BME280;37572;52.094;4.870;2023-05-19T11:22:25;102637.91;;;23.48;33.30
51496;BME280;37572;52.094;4.870;2023-05-19T11:24:53;102641.78;;;23.60;33.13
51496;BME280;37572;52.094;4.870;2023-05-19T11:27:32;102643.94;;;23.72;32.59
51496;BME280;37572;52.094;4.870;2023-05-19T11:29:58;102640.41;;;23.78;32.91
51496;BME280;37572;52.094;4.870;2023-05-19T11:32:28;102634.38;;;23.82;32.72
51496;BME280;37572;52.094;4.870;2023-05-19T11:34:55;102634.63;;;23.88;33.07
51496;BME280;37572;52.094;4.870;2023-05-19T11:37:21;102631.53;;;23.97;33.07
51496;BME280;37572;52.094;4.870;2023-05-19T11:39:46;102640.38;;;24.13;33.19
51496;BME280;37572;52.094;4.870;2023-05-19T11:42:12;102636.66;;;24.20;32.33
51496;BME280;37572;52.094;4.870;2023-05-19T11:44:38;102627.66;;;24.20;31.94
51496;BME280;37572;52.094;4.870;2023-05-19T11:47:05;102617.00;;;24.18;31.96
51496;BME280;37572;52.094;4.870;2023-05-19T11:49:31;102623.06;;;24.20;31.74
51496;BME280;37572;52.094;4.870;2023-05-19T11:51:59;102634.56;;;24.23;32.06
51496;BME280;37572;52.094;4.870;2023-05-19T11:54:29;102629.75;;;24.25;31.76
51496;BME280;37572;52.094;4.870;2023-05-19T11:56:56;102624.78;;;24.28;32.15
51496;BME280;37572;52.094;4.870;2023-05-19T11:59:34;102619.78;;;24.38;32.15
51496;BME280;37572;52.094;4.870;2023-05-19T12:02:01;102627.75;;;24.47;31.35
51496;BME280;37572;52.094;4.870;2023-05-19T12:04:29;102619.81;;;24.52;31.82
51496;BME280;37572;52.094;4.870;2023-05-19T12:06:54;102621.47;;;24.53;32.65
51496;BME280;37572;52.094;4.870;2023-05-19T12:09:21;102623.81;;;24.56;32.49
51496;BME280;37572;52.094;4.870;2023-05-19T12:11:48;102620.88;;;24.58;32.60
51496;BME280;37572;52.094;4.870;2023-05-19T12:14:13;102624.03;;;24.61;32.48
51496;BME280;37572;52.094;4.870;2023-05-19T12:16:39;102621.75;;;24.65;32.43
51496;BME280;37572;52.094;4.870;2023-05-19T12:19:07;102622.38;;;24.73;32.50
51496;BME280;37572;52.094;4.870;2023-05-19T12:21:32;102612.34;;;24.81;32.25
51496;BME280;37572;52.094;4.870;2023-05-19T12:23:58;102612.34;;;24.94;32.61
51496;BME280;37572;52.094;4.870;2023-05-19T12:26:24;102619.69;;;25.07;32.96
51496;BME280;37572;52.094;4.870;2023-05-19T12:28:50;102610.69;;;25.06;32.67
51496;BME280;37572;52.094;4.870;2023-05-19T12:31:16;102612.34;;;25.07;32.40
51496;BME280;37572;52.094;4.870;2023-05-19T12:33:42;102612.75;;;25.11;32.10
51496;BME280;37572;52.094;4.870;2023-05-19T12:36:08;102608.16;;;25.25;32.14
51496;BME280;37572;52.094;4.870;2023-05-19T12:38:34;102607.28;;;25.44;31.92
51496;BME280;37572;52.094;4.870;2023-05-19T12:41:01;102599.25;;;25.70;31.87
51496;BME280;37572;52.094;4.870;2023-05-19T12:43:27;102603.38;;;25.92;31.61
51496;BME280;37572;52.094;4.870;2023-05-19T12:45:52;102594.75;;;26.09;31.13
51496;BME280;37572;52.094;4.870;2023-05-19T12:48:20;102598.41;;;26.28;31.40
51496;BME280;37572;52.094;4.870;2023-05-19T12:50:47;102598.06;;;26.49;30.52
51496;BME280;37572;52.094;4.870;2023-05-19T12:53:13;102596.75;;;26.65;30.30
51496;BME280;37572;52.094;4.870;2023-05-19T12:55:43;102601.28;;;26.78;30.38
51496;BME280;37572;52.094;4.870;2023-05-19T12:58:10;102589.53;;;26.96;30.69
51496;BME280;37572;52.094;4.870;2023-05-19T13:00:43;102598.50;;;27.28;29.87
51496;BME280;37572;52.094;4.870;2023-05-19T13:03:17;102589.47;;;27.53;29.84
51496;BME280;37572;52.094;4.870;2023-05-19T13:05:45;102581.38;;;27.77;28.92
51496;BME280;37572;52.094;4.870;2023-05-19T13:08:12;102583.91;;;27.97;28.28